San Luis Potosi, Mexico

7:02 AM CDT on September 02, 2015 (GMT -0500)
Ponciano Arriaga International | | Change Station
CLOSE
Current Station
Airport
Location: San Luis Potosi,
Elevation: 6033 ft
Nearby Weather Stations

Elev 6033 ft 22.26 °N, 100.93 °W | Updated 15 minutes ago

Scattered Clouds
Scattered Clouds
63 °F
Feels Like 63 °F
N
0
Wind Variable Wind from North

Today
High -- | Low -- °F
--% Chance of Precip.
Yesterday
High -- | Low -- °F
Precip. -- in
7:26 AM 7:59 PM
Waning Gibbous, 81% visible
Pressure 29.89 in
Visibility 6.0 miles
Clouds Scattered Clouds 2500 ft
Dew Point 61 °F
Humidity 94%
Rainfall 0.00 in
Snow Depth Not available.
UV 0 out of 12
Pollen Not available.
Air Quality Not available.
Flu Activity Not available.
METAR MMSP 021147Z 00000KT 6SM SCT025 17/16 A3028 RMK SLP121 57005 910 8/500 HZY
Pressure 29.89 in
Visibility 6.0 miles
Clouds Scattered Clouds 2500 ft
Dew Point 61 °F
Humidity 94%
Rainfall 0.00 in
Snow Depth Not available.
UV 0 out of 12
Pollen Not available.
Air Quality Not available.
Flu Activity Not available.
METAR MMSP 021147Z 00000KT 6SM SCT025 17/16 A3028 RMK SLP121 57005 910 8/500 HZY

10-Day Weather Forecast

×

Almanac

Astronomy

Sep. 02, 2015 Rise Set
Actual Time
Civil Twilight
Nautical Twilight
Astronomical Twilight
Moon
Length of Visible Light
Length of Day
Tomorrow will be .
, % of the Moon is Illuminated

Today's Extremes

Country Highs Country Lows

Community

WunderPhotos

Upload Photos

1,851,736 photos uploaded!

WunderBlogs® & News

Nearby

Air Quality

  Air Quality AQ Index Pollutant
Not available.

Snow Depth

Station Depth Elevation

Earthquake Activity

City Distance Mag. Time & Date
Minimum magnitude displayed is 2.5.

Coastal Water Temperatures

Place Temperature

Stations

Nearby Weather Stations

Station Location Temp. Windchill Dew Point Humidity Wind Precip. Elev Updated Type